createdAt,value
2023-04-27T00:02:05.252Z,40.50
2023-04-27T00:04:35.865Z,40.39
2023-04-27T00:07:04.345Z,40.44
2023-04-27T00:09:32.640Z,40.36
2023-04-27T00:12:01.509Z,40.45
2023-04-27T00:14:29.900Z,40.49
2023-04-27T00:17:02.085Z,40.40
2023-04-27T00:19:30.735Z,40.43
2023-04-27T00:22:00.535Z,40.37
2023-04-27T00:24:34.373Z,40.39
2023-04-27T00:27:03.376Z,40.42
2023-04-27T00:29:33.593Z,40.46
2023-04-27T00:32:05.925Z,40.44
2023-04-27T00:34:34.055Z,40.45
2023-04-27T00:37:02.285Z,40.48
2023-04-27T00:39:30.492Z,40.50
2023-04-27T00:41:58.774Z,40.45
2023-04-27T00:44:28.095Z,40.52
2023-04-27T00:46:57.158Z,40.41
2023-04-27T00:49:26.904Z,40.49
2023-04-27T00:51:55.033Z,40.42
2023-04-27T00:54:24.029Z,40.47
2023-04-27T00:56:52.968Z,40.52
2023-04-27T00:59:21.987Z,40.58
2023-04-27T01:01:50.113Z,40.51
2023-04-27T01:04:21.777Z,40.56
2023-04-27T01:06:51.983Z,40.44
2023-04-27T01:09:20.445Z,40.60
2023-04-27T01:11:51.498Z,40.48
2023-04-27T01:14:19.624Z,40.59
2023-04-27T01:16:48.050Z,40.61
2023-04-27T01:19:16.486Z,40.61
2023-04-27T01:21:44.650Z,40.61
2023-04-27T01:24:14.106Z,40.54
2023-04-27T01:26:42.314Z,40.63
2023-04-27T01:29:28.509Z,40.55
2023-04-27T01:32:24.216Z,40.55
2023-04-27T01:34:53.823Z,40.69
2023-04-27T01:37:32.881Z,40.56
2023-04-27T01:43:12.273Z,40.49
2023-04-27T01:45:41.622Z,40.63
2023-04-27T01:48:09.851Z,40.62
2023-04-27T01:50:38.233Z,40.59
2023-04-27T01:53:09.675Z,40.54
2023-04-27T01:55:41.859Z,40.72
2023-04-27T01:58:10.121Z,40.59
2023-04-27T02:00:38.572Z,40.66
2023-04-27T02:03:06.950Z,40.50
2023-04-27T02:05:35.375Z,40.63
2023-04-27T02:08:03.810Z,40.48
2023-04-27T02:10:32.064Z,40.49
2023-04-27T02:13:01.692Z,40.58
2023-04-27T02:15:29.985Z,40.63
2023-04-27T02:17:58.829Z,40.68
2023-04-27T02:20:33.991Z,40.59
2023-04-27T02:23:02.268Z,40.64
2023-04-27T02:25:30.643Z,40.55
2023-04-27T02:27:58.803Z,40.39
2023-04-27T02:30:28.893Z,40.43
2023-04-27T02:32:59.824Z,40.58
2023-04-27T02:35:28.065Z,40.50
2023-04-27T02:37:56.264Z,40.58
2023-04-27T02:40:27.053Z,40.59
2023-04-27T02:42:55.266Z,40.64
2023-04-27T02:45:25.472Z,40.71
2023-04-27T02:47:55.260Z,40.70
2023-04-27T02:50:23.728Z,40.68
2023-04-27T02:52:51.968Z,40.71
2023-04-27T02:55:21.630Z,40.71
2023-04-27T02:57:49.997Z,40.68
2023-04-27T03:00:19.050Z,40.68
2023-04-27T03:02:47.717Z,40.74
2023-04-27T03:05:17.712Z,40.75
2023-04-27T03:07:45.817Z,40.79
2023-04-27T03:10:13.962Z,40.74
2023-04-27T03:12:42.104Z,40.82
2023-04-27T03:15:10.851Z,40.80
2023-04-27T03:17:39.186Z,40.92
2023-04-27T03:20:10.337Z,40.83
2023-04-27T03:22:39.905Z,40.82
2023-04-27T03:25:08.500Z,40.82
2023-04-27T03:27:36.776Z,40.77
2023-04-27T03:30:07.717Z,41.06
2023-04-27T03:32:35.912Z,40.73
2023-04-27T03:35:04.413Z,40.91
2023-04-27T03:37:34.643Z,40.88
2023-04-27T03:40:09.920Z,40.81
2023-04-27T03:42:38.329Z,40.88
2023-04-27T03:45:07.425Z,40.79
2023-04-27T03:47:35.877Z,40.81
2023-04-27T03:50:04.228Z,40.83
2023-04-27T03:52:33.758Z,40.85
2023-04-27T03:55:05.222Z,40.88
2023-04-27T03:57:34.367Z,41.01
2023-04-27T04:00:02.556Z,40.91
2023-04-27T04:02:41.098Z,41.05
2023-04-27T04:05:12.077Z,40.82
2023-04-27T04:07:41.653Z,40.95
2023-04-27T04:10:13.136Z,40.86
2023-04-27T04:12:41.612Z,40.87
2023-04-27T04:15:16.267Z,40.88
2023-04-27T04:17:45.908Z,40.93
2023-04-27T04:20:16.221Z,41.03
2023-04-27T04:22:46.060Z,40.92
2023-04-27T04:25:15.828Z,41.10
2023-04-27T04:27:44.532Z,41.08
2023-04-27T04:30:16.070Z,41.03
2023-04-27T04:32:48.300Z,41.06
2023-04-27T04:35:17.941Z,41.07
2023-04-27T04:37:49.355Z,40.92
2023-04-27T04:40:19.356Z,40.90
2023-04-27T04:42:47.487Z,41.06
2023-04-27T04:45:17.545Z,41.04
2023-04-27T04:47:45.707Z,41.01
2023-04-27T04:50:14.279Z,40.96
2023-04-27T04:52:42.670Z,41.01
2023-04-27T04:55:11.251Z,40.90
2023-04-27T04:57:40.771Z,41.15
2023-04-27T05:00:12.099Z,40.94
2023-04-27T05:02:40.353Z,40.82
2023-04-27T05:05:08.871Z,40.99
2023-04-27T05:07:36.966Z,40.96
2023-04-27T05:10:05.610Z,40.77
2023-04-27T05:12:33.584Z,40.87
2023-04-27T05:15:05.870Z,40.92
2023-04-27T05:17:34.239Z,40.92
2023-04-27T05:20:02.986Z,40.76
2023-04-27T05:22:32.085Z,40.82
2023-04-27T05:25:00.419Z,40.71
2023-04-27T05:27:28.618Z,40.69
2023-04-27T05:29:56.991Z,40.46
2023-04-27T05:32:26.506Z,40.40
2023-04-27T05:34:54.574Z,40.30
2023-04-27T05:37:24.282Z,40.39
2023-04-27T05:39:53.873Z,40.34
2023-04-27T05:42:41.622Z,40.58
2023-04-27T05:45:18.280Z,40.56
2023-04-27T05:47:47.945Z,40.56
2023-04-27T05:50:18.827Z,40.32
2023-04-27T05:52:48.117Z,40.25
2023-04-27T05:55:18.404Z,40.28
2023-04-27T05:57:54.510Z,40.40
2023-04-27T06:00:38.522Z,40.45
2023-04-27T06:03:08.249Z,40.53
2023-04-27T06:05:38.895Z,40.61
2023-04-27T06:08:08.639Z,40.52
2023-04-27T06:10:49.668Z,40.59
2023-04-27T06:13:22.373Z,40.53
2023-04-27T06:15:53.249Z,40.54
2023-04-27T06:18:23.158Z,40.65
2023-04-27T06:20:51.451Z,40.50
2023-04-27T06:23:25.312Z,40.51
2023-04-27T06:25:53.486Z,40.45
2023-04-27T06:44:03.171Z,40.44
2023-04-27T06:46:31.666Z,40.33
2023-04-27T06:48:59.918Z,40.32
2023-04-27T06:55:46.806Z,41.36
2023-04-27T07:05:48.175Z,40.42
2023-04-27T07:08:43.339Z,40.35
2023-04-27T07:11:42.796Z,40.20
2023-04-27T07:14:23.155Z,40.12
2023-04-27T07:16:56.621Z,39.90
2023-04-27T07:19:29.582Z,40.04
2023-04-27T07:22:00.975Z,39.79
2023-04-27T07:25:06.372Z,39.91
2023-04-27T07:27:37.562Z,39.64
2023-04-27T07:30:31.121Z,39.77
2023-04-27T07:33:07.041Z,39.76
2023-04-27T07:35:41.702Z,39.57
2023-04-27T07:38:33.035Z,39.73
2023-04-27T07:53:26.644Z,39.70
2023-04-27T07:55:57.339Z,39.79
2023-04-27T07:58:41.448Z,39.77
2023-04-27T08:01:21.625Z,39.45
2023-04-27T08:03:57.943Z,39.43
2023-04-27T08:06:33.281Z,39.61
2023-04-27T08:09:03.699Z,39.37
2023-04-27T08:11:37.740Z,39.66
2023-04-27T08:14:07.259Z,39.56
2023-04-27T08:16:39.701Z,39.62
2023-04-27T08:19:09.768Z,39.79
2023-04-27T08:21:38.437Z,39.68
2023-04-27T08:24:08.430Z,39.73
2023-04-27T08:26:45.440Z,39.87
2023-04-27T08:29:26.819Z,39.43
2023-04-27T08:32:01.061Z,39.49
2023-04-27T08:34:31.221Z,38.87
2023-04-27T08:36:59.471Z,39.14
2023-04-27T08:39:28.008Z,39.49
2023-04-27T08:41:59.851Z,39.37
2023-04-27T08:44:31.135Z,39.26
2023-04-27T08:46:59.500Z,39.13
2023-04-27T08:49:32.944Z,39.07
2023-04-27T08:55:58.340Z,39.17
2023-04-27T08:58:39.835Z,39.01
2023-04-27T09:01:08.387Z,39.54
2023-04-27T09:03:39.297Z,40.10
2023-04-27T09:14:20.097Z,40.37
2023-04-27T09:16:55.392Z,40.62
2023-04-27T09:19:27.721Z,40.44
2023-04-27T09:22:06.715Z,40.49
2023-04-27T09:24:42.999Z,39.57
2023-04-27T09:27:22.592Z,39.63
2023-04-27T09:34:59.577Z,38.98
2023-04-27T09:37:55.343Z,38.81
2023-04-27T09:40:35.436Z,38.91
2023-04-27T09:46:14.344Z,38.57
2023-04-27T09:48:44.849Z,38.64
2023-04-27T09:51:13.194Z,38.67
2023-04-27T09:53:46.001Z,38.89
2023-04-27T09:56:18.301Z,38.85
2023-04-27T09:59:00.031Z,39.12
2023-04-27T10:01:28.601Z,39.40
2023-04-27T10:04:19.739Z,39.54
2023-04-27T10:07:11.213Z,39.59
2023-04-27T10:18:08.241Z,39.48
2023-04-27T10:25:02.781Z,40.08
2023-04-27T10:27:40.380Z,40.02
2023-04-27T10:30:14.070Z,39.96
2023-04-27T10:32:51.651Z,40.09
2023-04-27T10:35:21.197Z,40.00
2023-04-27T11:04:59.245Z,38.41
2023-04-27T11:21:37.941Z,38.38
2023-04-27T11:24:15.730Z,38.21
2023-04-27T11:27:11.709Z,37.86
2023-04-27T11:29:42.985Z,37.16
2023-04-27T11:32:21.758Z,37.18
2023-04-27T11:35:00.767Z,37.44
2023-04-27T11:37:42.544Z,37.46
2023-04-27T11:40:31.523Z,37.67
2023-04-27T11:43:16.377Z,37.23
2023-04-27T11:45:52.290Z,37.56
2023-04-27T11:48:33.570Z,37.63
2023-04-27T12:18:30.544Z,37.36
2023-04-27T12:21:08.746Z,36.79
2023-04-27T12:23:46.293Z,36.89
2023-04-27T15:09:57.713Z,36.43
2023-04-27T15:12:32.023Z,36.45
2023-04-27T15:15:02.785Z,36.46
2023-04-27T15:17:40.619Z,36.46
2023-04-27T15:20:32.559Z,36.42
2023-04-27T15:24:04.304Z,36.57
2023-04-27T15:26:53.270Z,36.32
2023-04-27T15:29:55.575Z,36.47
2023-04-27T15:32:30.404Z,36.70
2023-04-27T15:35:10.473Z,37.04
2023-04-27T15:37:41.464Z,37.04
2023-04-27T15:40:10.613Z,36.97
2023-04-27T15:42:51.673Z,36.89
2023-04-27T15:45:35.235Z,36.91
2023-04-27T15:48:17.089Z,36.70
2023-04-27T15:50:48.363Z,36.71
2023-04-27T15:53:21.063Z,36.76
2023-04-27T15:55:53.049Z,36.71
2023-04-27T15:58:29.615Z,36.71
2023-04-27T16:01:01.501Z,36.60
2023-04-27T16:03:30.330Z,36.76
2023-04-27T16:05:58.877Z,36.76
2023-04-27T16:08:28.242Z,36.92
2023-04-27T16:10:58.493Z,37.01
2023-04-27T16:13:31.673Z,36.97
2023-04-27T16:16:08.582Z,36.90
2023-04-27T16:18:40.055Z,36.82
2023-04-27T16:21:13.099Z,36.69
2023-04-27T16:23:43.356Z,36.63
2023-04-27T16:26:17.448Z,36.93
2023-04-27T16:28:47.283Z,36.96
2023-04-27T16:31:36.105Z,36.99
2023-04-27T16:34:09.440Z,37.38
2023-04-27T16:36:38.036Z,37.75
2023-04-27T16:39:06.491Z,37.60
2023-04-27T16:44:57.155Z,37.48
2023-04-27T16:47:28.675Z,37.46
2023-04-27T16:50:01.106Z,37.45
2023-04-27T16:52:39.531Z,37.51
2023-04-27T16:55:10.891Z,37.43
2023-04-27T16:57:42.020Z,37.36
2023-04-27T17:03:54.079Z,37.44
2023-04-27T17:06:43.145Z,37.42
2023-04-27T17:12:15.584Z,37.46
2023-04-27T17:14:47.980Z,37.36
2023-04-27T17:17:18.106Z,37.30
2023-04-27T17:19:47.299Z,37.43
2023-04-27T17:22:29.016Z,37.50
2023-04-27T17:24:59.662Z,37.43
2023-04-27T17:27:35.339Z,37.76
2023-04-27T17:30:09.762Z,37.75
2023-04-27T17:32:43.576Z,37.71
2023-04-27T17:35:12.322Z,38.08
2023-04-27T17:37:45.973Z,38.10
2023-04-27T17:40:21.007Z,37.99
2023-04-27T17:42:49.525Z,38.07
2023-04-27T17:45:20.929Z,38.07
2023-04-27T17:47:54.166Z,38.11
2023-04-27T18:03:09.508Z,38.15
2023-04-27T18:05:48.381Z,38.27
2023-04-27T18:08:22.336Z,38.28
2023-04-27T18:10:58.938Z,38.25
2023-04-27T18:21:52.479Z,38.29
2023-04-27T18:24:22.427Z,38.47
2023-04-27T18:31:10.162Z,38.43
2023-04-27T18:43:23.770Z,38.51
2023-04-27T18:45:54.925Z,38.47
2023-04-27T18:48:26.076Z,38.80
2023-04-27T18:50:56.999Z,38.57
2023-04-27T18:53:32.818Z,38.56
2023-04-27T18:56:24.266Z,38.48
2023-04-27T19:03:53.401Z,38.62
2023-04-27T19:18:58.123Z,39.01
2023-04-27T19:25:16.532Z,38.88
2023-04-27T19:27:48.435Z,38.97
2023-04-27T19:30:25.028Z,39.00
2023-04-27T19:41:15.773Z,38.85
2023-04-27T19:51:42.872Z,38.94
2023-04-27T19:54:11.174Z,38.80
2023-04-27T19:56:39.525Z,39.08
2023-04-27T19:59:10.017Z,39.02
2023-04-27T20:01:49.795Z,39.08
2023-04-27T20:04:23.888Z,39.10
2023-04-27T20:06:53.933Z,39.00
2023-04-27T20:09:28.760Z,39.11
2023-04-27T20:12:08.198Z,39.28
2023-04-27T20:14:42.609Z,39.11
2023-04-27T20:17:10.556Z,39.12
2023-04-27T20:19:42.107Z,39.07
2023-04-27T20:22:23.745Z,39.16
2023-04-27T20:24:52.922Z,39.61
2023-04-27T20:27:20.965Z,39.20
2023-04-27T20:29:48.904Z,39.26
2023-04-27T20:32:17.048Z,39.27
2023-04-27T20:34:47.091Z,39.31
2023-04-27T20:37:20.123Z,39.32
2023-04-27T20:39:51.777Z,39.65
2023-04-27T20:42:20.967Z,39.49
2023-04-27T20:44:49.254Z,39.62
2023-04-27T20:47:20.850Z,39.42
2023-04-27T20:49:58.476Z,39.34
2023-04-27T20:52:34.396Z,39.63
2023-04-27T20:55:06.330Z,39.85
2023-04-27T20:57:48.056Z,39.48
2023-04-27T21:00:20.412Z,39.57
2023-04-27T21:03:11.955Z,39.44
2023-04-27T21:05:43.175Z,39.64
2023-04-27T21:08:12.855Z,39.36
2023-04-27T21:10:41.167Z,39.63
2023-04-27T21:13:09.158Z,39.68
2023-04-27T21:15:37.570Z,39.74
2023-04-27T21:18:07.963Z,39.51
2023-04-27T21:20:37.498Z,39.52
2023-04-27T21:23:07.374Z,39.94
2023-04-27T21:25:46.279Z,39.72
2023-04-27T21:28:14.570Z,39.83
2023-04-27T21:30:45.516Z,39.63
2023-04-27T21:33:15.003Z,39.82
2023-04-27T21:35:44.510Z,39.58
2023-04-27T21:38:12.721Z,39.87
2023-04-27T21:40:42.377Z,39.70
2023-04-27T21:43:10.594Z,40.02
2023-04-27T21:45:38.664Z,39.93
2023-04-27T21:48:07.121Z,39.73
2023-04-27T21:50:35.236Z,39.72
2023-04-27T21:53:03.399Z,39.91
2023-04-27T21:55:31.556Z,39.96
2023-04-27T22:02:34.920Z,39.71
2023-04-27T22:05:04.108Z,39.75
2023-04-27T22:07:32.598Z,39.85
2023-04-27T22:10:00.558Z,39.80
2023-04-27T22:12:28.430Z,39.91
2023-04-27T22:14:56.357Z,40.05
2023-04-27T22:17:26.133Z,39.87
2023-04-27T22:19:54.807Z,40.04
2023-04-27T22:22:23.021Z,40.01
2023-04-27T22:24:51.125Z,39.83
2023-04-27T22:27:19.103Z,40.01
2023-04-27T22:29:47.151Z,40.02
2023-04-27T22:32:17.962Z,39.86
2023-04-27T22:34:48.593Z,39.87
2023-04-27T22:37:16.715Z,39.92
2023-04-27T22:39:44.632Z,40.10
2023-04-27T22:42:12.549Z,39.88
2023-04-27T22:44:40.663Z,40.04
2023-04-27T22:47:40.543Z,39.91
2023-04-27T22:50:23.535Z,39.85
2023-04-27T22:53:07.820Z,39.95
2023-04-27T23:00:30.819Z,39.99
2023-04-27T23:03:21.002Z,40.12
2023-04-27T23:05:50.800Z,40.10
2023-04-27T23:08:18.697Z,40.07
2023-04-27T23:10:46.817Z,40.12
2023-04-27T23:13:14.666Z,40.13
2023-04-27T23:15:42.545Z,39.99
2023-04-27T23:18:10.460Z,40.07
2023-04-27T23:20:38.502Z,40.21
2023-04-27T23:23:07.778Z,40.05
2023-04-27T23:25:35.699Z,39.98
2023-04-27T23:28:46.738Z,40.08
2023-04-27T23:31:14.712Z,40.18
2023-04-27T23:33:42.710Z,40.13
2023-04-27T23:36:10.936Z,40.36
2023-04-27T23:38:40.239Z,40.25
2023-04-27T23:41:08.220Z,40.30
2023-04-27T23:43:36.178Z,40.09
2023-04-27T23:46:04.288Z,40.00
2023-04-27T23:48:32.521Z,40.09
2023-04-27T23:51:01.054Z,40.17
2023-04-27T23:53:29.413Z,40.11
2023-04-27T23:55:58.814Z,40.17
2023-04-27T23:58:26.795Z,40.28
